Time;durP1;ratioP1;P1;durP2;ratioP2;P2;SDS_P1;SDS_P2;PMS_P1;PMS_P2;Temp;Humidity;BMP_temperature;BMP_pressure;BME280_temperature;BME280_humidity;BME280_pressure;Samples;Min_cycle;Max_cycle;Signal;HPM_P1;HPM_P2
2022/04/26 03:39:00;;;;;;;13.43;9.27;;;;;10.10;95860.00;;;;8320047;28;20331;-75
2022/04/26 03:43:05;;;;;;;15.33;9.97;;;;;10.10;95860.00;;;;8347028;28;20228;-74
2022/04/26 03:47:08;;;;;;;14.73;9.70;;;;;10.20;95854.00;;;;8346442;28;20303;-75
2022/04/26 03:51:11;;;;;;;14.70;10.10;;;;;10.20;95865.00;;;;8348703;28;20239;-74
2022/04/26 03:55:15;;;;;;;13.47;9.63;;;;;10.30;95865.00;;;;8347694;28;20277;-74
2022/04/26 03:59:20;;;;;;;14.30;9.87;;;;;10.40;95868.00;;;;8345055;28;20870;-75
2022/04/26 04:03:23;;;;;;;14.57;10.40;;;;;10.30;95867.00;;;;8328034;28;20237;-74
2022/04/26 04:07:26;;;;;;;16.60;11.03;;;;;10.30;95867.00;;;;8312722;28;20225;-74
2022/04/26 04:11:29;;;;;;;19.37;11.07;;;;;10.10;95874.00;;;;8274599;28;20239;-74
2022/04/26 04:15:34;;;;;;;16.83;11.37;;;;;10.10;95867.00;;;;8261953;28;20356;-70
2022/04/26 04:19:37;;;;;;;16.90;11.17;;;;;10.00;95877.00;;;;8245722;28;20229;-78
2022/04/26 04:23:41;;;;;;;15.80;11.37;;;;;9.90;95882.00;;;;8314878;28;20694;-70
2022/04/26 04:27:44;;;;;;;18.10;11.70;;;;;9.80;95883.00;;;;8315244;28;20225;-68
2022/04/26 04:31:49;;;;;;;18.03;11.83;;;;;9.70;95881.00;;;;8319465;28;20231;-69
2022/04/26 04:35:53;;;;;;;20.50;12.30;;;;;9.60;95883.00;;;;8302432;28;20652;-67
2022/04/26 04:39:56;;;;;;;17.77;12.27;;;;;9.60;95877.00;;;;8315623;28;20232;-66
2022/04/26 04:43:59;;;;;;;20.67;12.83;;;;;9.60;95880.00;;;;8320890;28;20225;-65
2022/04/26 04:48:05;;;;;;;24.87;14.33;;;;;9.50;95882.00;;;;8291944;28;20905;-68
2022/04/26 04:52:08;;;;;;;20.40;13.80;;;;;9.50;95875.00;;;;8323840;28;20589;-65
2022/04/26 04:56:12;;;;;;;21.23;12.97;;;;;9.40;95874.00;;;;8333505;28;20308;-67
2022/04/26 05:00:15;;;;;;;21.93;13.67;;;;;9.40;95891.00;;;;8324605;28;20228;-65
2022/04/26 05:04:20;;;;;;;25.17;13.73;;;;;9.30;95881.00;;;;8330272;28;20248;-65
2022/04/26 05:08:24;;;;;;;28.33;13.90;;;;;9.30;95894.00;;;;8333330;28;20312;-65
2022/04/26 05:12:28;;;;;;;26.83;13.87;;;;;9.30;95889.00;;;;8327435;28;20282;-65
2022/04/26 05:16:31;;;;;;;30.03;14.03;;;;;9.30;95899.00;;;;8320421;28;20263;-68
2022/04/26 05:20:35;;;;;;;25.33;15.27;;;;;9.30;95895.00;;;;8321128;28;20231;-66
2022/04/26 05:24:57;;;;;;;27.07;14.47;;;;;9.30;95890.00;;;;8333317;28;20559;-66
2022/04/26 05:29:01;;;;;;;24.77;13.73;;;;;9.30;95909.00;;;;8315067;28;20634;-65
2022/04/26 05:33:04;;;;;;;27.37;14.80;;;;;9.30;95909.00;;;;8314388;28;20311;-65
2022/04/26 05:37:09;;;;;;;28.23;14.93;;;;;9.40;95908.00;;;;8313585;28;20225;-66
2022/04/26 05:41:13;;;;;;;25.70;15.23;;;;;9.50;95910.00;;;;8310242;28;21036;-66
2022/04/26 05:45:16;;;;;;;29.00;16.00;;;;;9.60;95906.00;;;;8313801;28;20229;-65
2022/04/26 05:49:19;;;;;;;26.50;15.53;;;;;9.60;95902.00;;;;8317286;28;20310;-64
2022/04/26 05:53:24;;;;;;;29.20;16.30;;;;;9.70;95900.00;;;;8320379;28;20595;-67
2022/04/26 05:57:27;;;;;;;30.30;15.47;;;;;9.70;95908.00;;;;8312716;28;20225;-67
2022/04/26 06:01:30;;;;;;;30.07;15.80;;;;;9.70;95907.00;;;;8321832;28;20235;-66
2022/04/26 06:05:34;;;;;;;30.50;16.47;;;;;9.70;95909.00;;;;8313484;28;20984;-64
2022/04/26 06:09:40;;;;;;;27.93;16.87;;;;;9.70;95911.00;;;;8319146;28;20312;-72
2022/04/26 06:13:43;;;;;;;45.88;23.65;;;;;9.60;95913.00;;;;8321078;28;20461;-69
2022/04/26 06:17:46;;;;;;;32.17;18.30;;;;;9.70;95911.00;;;;8316389;28;20328;-70
2022/04/26 06:21:49;;;;;;;37.17;18.40;;;;;9.70;95909.00;;;;8313540;28;20233;-67
2022/04/26 06:25:54;;;;;;;32.67;17.23;;;;;9.70;95911.00;;;;8318572;28;20707;-71
2022/04/26 06:29:57;;;;;;;34.50;17.60;;;;;9.70;95913.00;;;;8321463;28;20239;-73
2022/04/26 06:34:00;;;;;;;31.23;17.73;;;;;9.70;95916.00;;;;8311676;28;20247;-68
2022/04/26 06:38:04;;;;;;;33.17;16.90;;;;;9.70;95903.00;;;;8310908;28;20236;-69
2022/04/26 06:42:08;;;;;;;35.57;18.60;;;;;9.80;95916.00;;;;8312715;28;21134;-69
2022/04/26 06:46:12;;;;;;;38.07;19.07;;;;;9.80;95913.00;;;;8319039;28;20308;-70
2022/04/26 06:50:15;;;;;;;37.13;18.00;;;;;9.80;95913.00;;;;8308106;28;20887;-70
2022/04/26 06:54:18;;;;;;;35.80;18.80;;;;;9.80;95911.00;;;;8311221;28;20583;-70
2022/04/26 06:58:23;;;;;;;37.57;17.57;;;;;9.90;95913.00;;;;8314062;28;20240;-68
2022/04/26 07:02:26;;;;;;;34.50;18.70;;;;;9.90;95914.00;;;;8316378;28;20229;-68
2022/04/26 07:06:31;;;;;;;35.50;17.93;;;;;10.00;95907.00;;;;8312111;28;20229;-69
2022/04/26 07:10:34;;;;;;;33.67;19.13;;;;;10.10;95907.00;;;;8315998;28;20308;-68
2022/04/26 07:14:39;;;;;;;34.20;18.27;;;;;10.10;95916.00;;;;8310580;28;20249;-68
2022/04/26 07:18:42;;;;;;;38.57;18.60;;;;;10.10;95914.00;;;;8305922;28;20710;-70
2022/04/26 07:22:50;;;;;;;36.90;19.13;;;;;10.20;95920.00;;;;8312530;28;20256;-67
2022/04/26 07:26:54;;;;;;;36.10;18.53;;;;;10.20;95920.00;;;;8312625;28;20233;-68
2022/04/26 07:30:59;;;;;;;36.47;19.00;;;;;10.20;95916.00;;;;8314596;28;20270;-69
2022/04/26 07:35:02;;;;;;;31.20;17.67;;;;;10.20;95919.00;;;;8310561;28;20240;-66
2022/04/26 07:39:06;;;;;;;36.43;19.17;;;;;10.20;95924.00;;;;8308668;28;20231;-66
2022/04/26 07:43:09;;;;;;;37.13;18.73;;;;;10.10;95922.00;;;;8314270;28;20217;-69
2022/04/26 07:47:14;;;;;;;37.23;20.13;;;;;10.10;95922.00;;;;8322633;28;20281;-71
2022/04/26 07:51:18;;;;;;;38.63;18.90;;;;;10.10;95927.00;;;;8322269;28;20249;-73
2022/04/26 07:55:21;;;;;;;39.90;20.40;;;;;10.20;95925.00;;;;8321524;28;20243;-70
2022/04/26 07:59:28;;;;;;;35.07;19.90;;;;;10.20;95938.00;;;;8318275;28;20602;-72
2022/04/26 08:03:35;;;;;;;38.33;20.57;;;;;10.20;95935.00;;;;8319872;28;20235;-67
2022/04/26 08:07:39;;;;;;;40.93;19.77;;;;;10.30;95944.00;;;;8329153;28;20228;-68
2022/04/26 08:11:43;;;;;;;42.07;20.07;;;;;10.40;95934.00;;;;8317086;28;20229;-70
2022/04/26 08:15:46;;;;;;;39.08;20.25;;;;;10.50;95942.00;;;;8316748;28;20240;-70
2022/04/26 08:19:50;;;;;;;43.80;21.05;;;;;10.70;95947.00;;;;8315865;28;20236;-71
2022/04/26 08:28:14;;;;;;;40.13;21.50;;;;;10.90;95952.00;;;;8286903;28;20305;-68
2022/04/26 08:32:17;;;;;;;35.63;20.63;;;;;11.10;95951.00;;;;8315701;28;20543;-66
2022/04/26 08:36:22;;;;;;;39.17;20.90;;;;;11.30;95952.00;;;;8317548;28;20229;-66
2022/04/26 08:40:26;;;;;;;35.10;19.80;;;;;11.60;95959.00;;;;8318317;28;20340;-65
2022/04/26 08:44:30;;;;;;;36.90;20.75;;;;;11.60;95955.00;;;;8316619;28;20292;-69
2022/04/26 08:52:57;;;;;;;40.33;21.30;;;;;12.10;95962.00;;;;8313365;28;20316;-68
2022/04/26 08:57:00;;;;;;;36.33;20.70;;;;;12.40;95975.00;;;;8319692;28;20225;-66
2022/04/26 09:01:09;;;;;;;37.03;21.40;;;;;12.50;95960.00;;;;8316830;28;20249;-66
2022/04/26 09:05:14;;;;;;;33.00;18.88;;;;;12.70;95972.00;;;;8315361;28;20234;-66
2022/04/26 09:09:21;;;;;;;37.55;20.80;;;;;12.60;95977.00;;;;8323622;28;20225;-65
2022/04/26 09:13:26;;;;;;;36.00;20.55;;;;;12.70;95965.00;;;;8324246;28;20259;-68
2022/04/26 09:17:29;;;;;;;36.60;21.30;;;;;12.80;95977.00;;;;8316031;28;20311;-68
2022/04/26 09:21:35;;;;;;;35.15;20.95;;;;;12.70;95981.00;;;;8334155;28;20230;-67
2022/04/26 09:25:39;;;;;;;31.85;19.70;;;;;12.70;95973.00;;;;8314612;28;20230;-69
2022/04/26 09:29:47;;;;;;;35.53;20.08;;;;;12.50;95983.00;;;;8313741;28;20249;-68
2022/04/26 09:33:52;;;;;;;34.10;20.20;;;;;12.40;95985.00;;;;8315395;28;20234;-69
2022/04/26 09:37:55;;;;;;;37.05;21.10;;;;;12.30;95988.00;;;;8316544;28;20668;-70
2022/04/26 09:42:00;;;;;;;39.88;20.75;;;;;12.20;95986.00;;;;8326914;28;20228;-69
2022/04/26 09:46:06;;;;;;;36.47;20.00;;;;;12.30;95984.00;;;;8323810;28;20223;-71
2022/04/26 09:50:12;;;;;;;35.67;21.02;;;;;12.30;95989.00;;;;8312945;28;20228;-70
2022/04/26 09:54:16;;;;;;;34.97;21.02;;;;;12.40;95991.00;;;;8318727;28;20703;-69
2022/04/26 09:58:22;;;;;;;45.08;25.50;;;;;12.50;95994.00;;;;8320269;28;20222;-73
2022/04/26 10:02:31;;;;;;;40.88;25.05;;;;;12.40;95997.00;;;;8315072;28;20235;-66
2022/04/26 10:06:35;;;;;;;36.05;20.80;;;;;12.30;95997.00;;;;8318614;28;20296;-70
2022/04/26 10:10:41;;;;;;;45.53;24.90;;;;;12.20;95995.00;;;;8312541;28;20230;-75
2022/04/26 10:14:46;;;;;;;41.47;23.92;;;;;12.30;95994.00;;;;8311580;28;20235;-70
2022/04/26 10:18:50;;;;;;;39.00;22.58;;;;;12.40;95996.00;;;;8308460;28;20255;-75
2022/04/26 10:22:57;;;;;;;35.92;21.80;;;;;12.40;95998.00;;;;8315981;28;20306;-69
2022/04/26 10:27:18;;;;;;;36.65;20.48;;;;;12.30;95995.00;;;;8316255;28;20228;-66
2022/04/26 10:31:37;;;;;;;37.42;21.15;;;;;12.30;95982.00;;;;8319824;28;20225;-66
2022/04/26 10:35:41;;;;;;;37.92;21.65;;;;;12.40;95983.00;;;;8315760;28;20238;-69
2022/04/26 10:39:46;;;;;;;42.63;23.58;;;;;12.60;95975.00;;;;8315741;28;20471;-72
2022/04/26 10:44:24;;;;;;;34.13;20.42;;;;;12.60;95981.00;;;;8284946;28;20280;-68
2022/04/26 10:48:28;;;;;;;37.10;22.20;;;;;12.50;95977.00;;;;8283406;28;20723;-70
2022/04/26 10:52:35;;;;;;;37.50;21.40;;;;;12.40;95988.00;;;;8317427;28;20302;-68
2022/04/26 10:56:39;;;;;;;41.15;22.17;;;;;12.20;95985.00;;;;8315082;28;20224;-70
2022/04/26 11:00:42;;;;;;;36.60;21.65;;;;;12.20;95983.00;;;;8317675;28;20674;-71
2022/04/26 11:04:47;;;;;;;39.40;21.45;;;;;12.10;95986.00;;;;8319487;28;20246;-68
2022/04/26 11:09:05;;;;;;;38.90;20.85;;;;;11.80;95986.00;;;;8315141;28;20232;-68
2022/04/26 11:13:09;;;;;;;38.92;21.75;;;;;12.00;95973.00;;;;8307078;28;20224;-71
2022/04/26 11:17:12;;;;;;;44.35;23.50;;;;;12.00;95975.00;;;;8311436;28;20247;-71
2022/04/26 11:21:17;;;;;;;40.28;22.42;;;;;12.00;95980.00;;;;8311493;28;20220;-69
2022/04/26 11:29:51;;;;;;;39.60;21.52;;;;;12.30;95992.00;;;;8309639;28;20228;-71
2022/04/26 11:33:58;;;;;;;35.97;20.15;;;;;12.30;95988.00;;;;8310679;28;20223;-71
2022/04/26 11:38:09;;;;;;;39.80;21.80;;;;;12.30;96002.00;;;;8311923;28;20759;-69
2022/04/26 11:42:13;;;;;;;38.08;20.52;;;;;12.50;95997.00;;;;8310785;28;20308;-71
2022/04/26 11:46:16;;;;;;;34.90;20.65;;;;;12.60;95999.00;;;;8313525;28;20225;-73
2022/04/26 11:50:21;;;;;;;35.72;20.58;;;;;12.60;96005.00;;;;8312790;28;20222;-72
2022/04/26 11:54:36;;;;;;;34.78;20.15;;;;;12.50;95999.00;;;;8310914;28;20329;-70
2022/04/26 11:58:41;;;;;;;35.03;19.95;;;;;12.50;96005.00;;;;8310704;28;20222;-68
2022/04/26 12:02:45;;;;;;;36.05;21.10;;;;;12.30;96020.00;;;;8325042;28;20305;-68
2022/04/26 12:06:50;;;;;;;36.85;20.65;;;;;12.30;96018.00;;;;8312520;28;20675;-75
2022/04/26 12:10:55;;;;;;;36.83;20.25;;;;;12.10;96021.00;;;;8313032;28;20227;-74
2022/04/26 12:14:59;;;;;;;37.17;21.40;;;;;11.90;96027.00;;;;8309381;28;20227;-72
2022/04/26 12:19:03;;;;;;;36.42;21.10;;;;;11.80;96035.00;;;;8314501;28;20240;-73
2022/04/26 12:23:07;;;;;;;41.63;21.27;;;;;11.80;96043.00;;;;8311546;28;20301;-73
2022/04/26 12:27:15;;;;;;;37.40;19.30;;;;;11.70;96055.00;;;;8313193;28;20240;-72
2022/04/26 12:31:28;;;;;;;20.40;11.02;;;;;11.30;96050.00;;;;8316541;28;20249;-71
2022/04/26 12:35:31;;;;;;;13.77;7.47;;;;;11.20;96053.00;;;;8316952;28;20229;-74
2022/04/26 12:39:42;;;;;;;15.30;7.90;;;;;11.00;96056.00;;;;8326925;28;20696;-69
2022/04/26 12:44:01;;;;;;;15.20;10.40;;;;;10.90;96055.00;;;;8316726;28;20316;-71
2022/04/26 12:52:33;;;;;;;14.70;8.60;;;;;10.80;96049.00;;;;8315606;28;20755;-71
2022/04/26 12:56:36;;;;;;;16.40;8.53;;;;;10.90;96049.00;;;;8325681;28;20971;-71
2022/04/26 13:00:42;;;;;;;11.87;6.57;;;;;10.90;96049.00;;;;8318840;28;20312;-72
2022/04/26 13:04:45;;;;;;;10.67;6.60;;;;;10.80;96053.00;;;;8320710;28;20229;-71
2022/04/26 13:08:51;;;;;;;10.73;6.47;;;;;10.70;96051.00;;;;8318277;28;20259;-71
2022/04/26 13:12:54;;;;;;;9.82;6.32;;;;;10.80;96050.00;;;;8318706;28;20236;-72
2022/04/26 13:17:00;;;;;;;9.37;6.60;;;;;10.80;96058.00;;;;8321207;28;20609;-72
2022/04/26 13:21:04;;;;;;;12.20;6.80;;;;;10.90;96065.00;;;;8311165;28;20221;-72
2022/04/26 13:25:09;;;;;;;12.55;6.30;;;;;11.00;96059.00;;;;8316276;28;20300;-71
2022/04/26 13:29:12;;;;;;;6.43;5.13;;;;;11.00;96066.00;;;;8314095;28;20670;-70
2022/04/26 13:33:17;;;;;;;8.20;5.73;;;;;11.00;96067.00;;;;8315052;28;20240;-72
2022/04/26 13:37:21;;;;;;;7.37;5.80;;;;;11.00;96063.00;;;;8321832;28;20257;-73
2022/04/26 13:41:27;;;;;;;6.30;4.00;;;;;11.00;96070.00;;;;8313694;28;20243;-70
2022/04/26 13:45:31;;;;;;;5.95;4.80;;;;;11.00;96065.00;;;;8318141;28;20336;-74
2022/04/26 13:49:40;;;;;;;6.47;5.10;;;;;11.00;96070.00;;;;8312669;28;20230;-73
2022/04/26 13:53:43;;;;;;;4.90;3.97;;;;;10.90;96076.00;;;;8312220;28;20321;-73
2022/04/26 13:57:48;;;;;;;4.80;4.03;;;;;10.80;96080.00;;;;8313737;28;20229;-73
2022/04/26 14:01:53;;;;;;;4.53;3.87;;;;;11.00;96085.00;;;;8312009;28;20834;-73
2022/04/26 14:05:58;;;;;;;5.47;4.00;;;;;11.00;96092.00;;;;8314149;28;20229;-72
2022/04/26 14:10:01;;;;;;;6.45;3.72;;;;;11.00;96094.00;;;;8310908;28;20259;-70
2022/04/26 14:22:59;;;;;;;3.42;3.13;;;;;11.00;96100.00;;;;8312923;28;20233;-74
2022/04/26 14:27:02;;;;;;;6.87;5.43;;;;;11.00;96096.00;;;;8313385;28;20316;-73
2022/04/26 14:31:06;;;;;;;5.35;4.03;;;;;10.90;96100.00;;;;8312596;28;20313;-73
2022/04/26 14:35:10;;;;;;;9.32;4.10;;;;;10.80;96104.00;;;;8297530;28;20220;-71
2022/04/26 14:39:15;;;;;;;6.28;3.70;;;;;10.80;96099.00;;;;8308112;28;20346;-70
2022/04/26 14:43:18;;;;;;;8.38;3.63;;;;;11.00;96112.00;;;;8310096;28;20737;-70
2022/04/26 14:47:22;;;;;;;4.00;3.20;;;;;11.00;96114.00;;;;8309403;28;20216;-69
2022/04/26 14:51:25;;;;;;;18.83;12.38;;;;;11.10;96107.00;;;;8314025;28;20329;-71
2022/04/26 14:55:30;;;;;;;4.05;3.65;;;;;11.10;96105.00;;;;8305540;28;20241;-73
2022/04/26 14:59:38;;;;;;;7.15;5.22;;;;;11.00;96096.00;;;;8311243;28;20228;-72
2022/04/26 15:03:43;;;;;;;6.38;4.10;;;;;11.00;96098.00;;;;8307642;28;20953;-70
2022/04/26 15:16:39;;;;;;;6.43;4.07;;;;;11.10;96107.00;;;;8307556;28;20256;-73
2022/04/26 15:20:42;;;;;;;6.00;4.47;;;;;11.10;96107.00;;;;8304636;28;20741;-72
2022/04/26 15:24:45;;;;;;;8.82;4.80;;;;;11.30;96111.00;;;;8307205;28;20679;-73
2022/04/26 15:28:51;;;;;;;9.68;6.18;;;;;11.70;96121.00;;;;8311583;28;20233;-70
2022/04/26 15:32:54;;;;;;;8.00;4.90;;;;;11.90;96138.00;;;;8310646;28;20220;-71
2022/04/26 15:36:58;;;;;;;7.35;5.03;;;;;11.90;96142.00;;;;8310107;28;20226;-72
2022/04/26 15:41:05;;;;;;;8.32;5.65;;;;;12.10;96152.00;;;;8307148;28;20246;-72
2022/04/26 15:45:10;;;;;;;7.57;5.72;;;;;12.00;96156.00;;;;8313758;28;20230;-72
2022/04/26 15:49:13;;;;;;;8.02;5.78;;;;;11.90;96160.00;;;;8312920;28;20240;-71
2022/04/26 15:53:16;;;;;;;9.15;6.53;;;;;11.90;96152.00;;;;8311701;28;20222;-71
2022/04/26 15:57:19;;;;;;;10.18;6.00;;;;;12.00;96151.00;;;;8312787;28;20247;-70
2022/04/26 16:01:25;;;;;;;11.02;6.40;;;;;12.00;96144.00;;;;8310569;28;20233;-72
2022/04/26 16:05:29;;;;;;;6.97;5.55;;;;;11.90;96147.00;;;;8317389;28;20714;-74
2022/04/26 16:22:36;;;;;;;14.75;7.18;;;;;11.90;96152.00;;;;8318776;28;20290;-74
2022/04/26 16:26:39;;;;;;;12.63;6.65;;;;;11.90;96144.00;;;;8319215;28;20228;-75
2022/04/26 16:30:43;;;;;;;13.32;7.30;;;;;11.90;96150.00;;;;8314437;28;20224;-72
2022/04/26 16:34:47;;;;;;;11.45;7.28;;;;;11.90;96150.00;;;;8319744;28;20230;-73
2022/04/26 16:38:50;;;;;;;12.60;7.75;;;;;11.80;96164.00;;;;8318063;28;20543;-73
2022/04/26 16:42:54;;;;;;;15.75;9.15;;;;;11.70;96163.00;;;;8318358;28;20232;-72
2022/04/26 16:46:57;;;;;;;13.65;8.45;;;;;11.60;96176.00;;;;8317649;28;20590;-74
2022/04/26 16:51:02;;;;;;;16.08;9.32;;;;;11.60;96181.00;;;;8315922;28;20296;-74
2022/04/26 16:55:05;;;;;;;18.63;10.32;;;;;11.60;96183.00;;;;8317825;28;20236;-74
2022/04/26 16:59:09;;;;;;;15.07;9.18;;;;;11.50;96187.00;;;;8317743;28;20248;-74
2022/04/26 17:03:14;;;;;;;17.92;10.38;;;;;11.50;96190.00;;;;8316206;28;20238;-74
2022/04/26 17:07:19;;;;;;;17.23;10.52;;;;;11.60;96194.00;;;;8314408;28;20225;-74
2022/04/26 17:15:47;;;;;;;17.45;10.15;;;;;11.70;96208.00;;;;8315918;28;20229;-75
2022/04/26 17:19:50;;;;;;;294.90;193.63;;;;;11.70;96216.00;;;;8313967;28;20263;-74
2022/04/26 17:23:55;;;;;;;863.60;432.58;;;;;11.70;96235.00;;;;8312385;28;20235;-73
2022/04/26 17:28:00;;;;;;;71.03;38.63;;;;;11.60;96233.00;;;;8313890;28;20739;-73
2022/04/26 17:32:03;;;;;;;36.03;19.35;;;;;11.70;96238.00;;;;8317119;28;20848;-73
2022/04/26 17:36:07;;;;;;;30.05;15.07;;;;;11.60;96238.00;;;;8315672;28;20311;-73
2022/04/26 17:40:15;;;;;;;25.00;13.32;;;;;11.60;96233.00;;;;8311832;28;20259;-72
2022/04/26 17:44:18;;;;;;;21.92;14.13;;;;;11.60;96248.00;;;;8314423;28;20586;-71
2022/04/26 17:48:21;;;;;;;17.37;9.90;;;;;11.50;96247.00;;;;8316332;28;20300;-71
2022/04/26 17:52:25;;;;;;;17.30;9.90;;;;;11.10;96256.00;;;;8309310;28;20235;-73
2022/04/26 17:56:29;;;;;;;14.85;8.52;;;;;10.60;96260.00;;;;8317488;28;20232;-73
2022/04/26 18:00:32;;;;;;;28.43;20.70;;;;;10.30;96260.00;;;;8317121;28;20317;-74
2022/04/26 18:04:35;;;;;;;18.50;11.27;;;;;10.10;96264.00;;;;8314532;28;20671;-74
2022/04/26 18:08:41;;;;;;;17.53;8.80;;;;;9.90;96275.00;;;;8316415;28;20221;-72
2022/04/26 18:12:46;;;;;;;17.30;9.57;;;;;9.60;96271.00;;;;8315322;28;20228;-69
2022/04/26 18:16:50;;;;;;;18.50;9.40;;;;;9.30;96275.00;;;;8315693;28;20586;-70
2022/04/26 18:20:53;;;;;;;27.57;10.70;;;;;9.20;96292.00;;;;8311168;28;20649;-69
2022/04/26 18:24:57;;;;;;;21.73;10.63;;;;;9.10;96281.00;;;;8305659;28;20240;-70
2022/04/26 18:29:01;;;;;;;19.30;10.07;;;;;9.00;96285.00;;;;8311172;28;20229;-71
2022/04/26 18:33:05;;;;;;;22.93;11.27;;;;;8.90;96281.00;;;;8313587;28;20586;-71
2022/04/26 18:37:08;;;;;;;20.37;10.50;;;;;8.90;96275.00;;;;8311837;28;20729;-69
2022/04/26 18:41:12;;;;;;;23.57;11.53;;;;;8.90;96281.00;;;;8308706;28;20233;-70
2022/04/26 18:45:19;;;;;;;21.90;11.77;;;;;8.90;96279.00;;;;8311969;28;20239;-70
2022/04/26 18:49:28;;;;;;;20.90;11.80;;;;;8.90;96277.00;;;;8311085;28;20227;-74
2022/04/26 18:53:31;;;;;;;21.03;10.10;;;;;8.90;96280.00;;;;8303245;28;20240;-73
2022/04/26 18:57:35;;;;;;;21.17;10.93;;;;;8.90;96288.00;;;;8324621;28;20237;-71
2022/04/26 19:01:39;;;;;;;23.10;11.67;;;;;8.90;96289.00;;;;8304618;28;20319;-71
2022/04/26 19:05:43;;;;;;;20.23;11.17;;;;;8.90;96288.00;;;;8312539;28;20324;-71
2022/04/26 19:14:03;;;;;;;24.10;12.43;;;;;9.00;96297.00;;;;8308338;28;20221;-68
2022/04/26 19:18:09;;;;;;;24.53;11.47;;;;;9.00;96294.00;;;;8311057;28;20225;-69
2022/04/26 19:22:13;;;;;;;24.03;11.17;;;;;9.00;96303.00;;;;8314057;28;20332;-70
2022/04/26 19:26:18;;;;;;;24.20;11.33;;;;;9.00;96305.00;;;;8308937;28;20225;-70
2022/04/26 19:30:21;;;;;;;27.37;12.03;;;;;9.10;96313.00;;;;8313105;28;20277;-69
2022/04/26 19:34:26;;;;;;;27.00;12.53;;;;;9.00;96311.00;;;;8310299;28;20260;-73
2022/04/26 19:38:29;;;;;;;26.63;12.17;;;;;9.00;96322.00;;;;8314063;28;20232;-69
2022/04/26 19:42:32;;;;;;;28.93;13.20;;;;;9.00;96327.00;;;;8323743;28;20311;-71
2022/04/26 19:46:36;;;;;;;19.40;11.20;;;;;9.00;96332.00;;;;8320499;28;20299;-73
2022/04/26 19:55:02;;;;;;;30.87;13.27;;;;;8.90;96342.00;;;;8320027;28;20315;-71
2022/04/26 19:59:05;;;;;;;28.27;13.37;;;;;8.90;96341.00;;;;8316012;28;20247;-69
2022/04/26 20:03:09;;;;;;;37.63;14.50;;;;;9.00;96346.00;;;;8321435;28;20229;-69
2022/04/26 20:07:14;;;;;;;47.00;15.20;;;;;8.90;96344.00;;;;8321966;28;20223;-69
2022/04/26 20:11:18;;;;;;;29.30;12.70;;;;;8.90;96353.00;;;;8320535;28;20311;-69
2022/04/26 20:15:21;;;;;;;32.73;14.43;;;;;8.90;96358.00;;;;8319922;28;20232;-70
2022/04/26 20:19:25;;;;;;;37.90;14.67;;;;;8.80;96362.00;;;;8326933;28;20663;-70
2022/04/26 20:23:29;;;;;;;23.83;11.53;;;;;8.80;96361.00;;;;8321053;28;20235;-70
2022/04/26 20:32:00;;;;;;;23.43;10.70;;;;;8.70;96360.00;;;;8321124;28;20221;-70
2022/04/26 20:36:04;;;;;;;26.93;10.77;;;;;8.60;96362.00;;;;8322041;28;20252;-77
2022/04/26 20:40:10;;;;;;;23.63;10.97;;;;;8.70;96368.00;;;;8321451;28;20233;-77
2022/04/26 20:44:13;;;;;;;27.53;11.77;;;;;8.70;96365.00;;;;8320466;28;20287;-77
2022/04/26 20:48:17;;;;;;;20.97;10.63;;;;;8.70;96369.00;;;;8322924;28;20287;-77
2022/04/26 20:52:20;;;;;;;27.27;11.33;;;;;8.80;96371.00;;;;8314634;28;20764;-75
2022/04/26 20:56:26;;;;;;;26.27;11.83;;;;;8.80;96371.00;;;;8317228;28;20304;-76
2022/04/26 21:00:29;;;;;;;25.80;11.80;;;;;8.80;96375.00;;;;8315479;28;20865;-77
2022/04/26 21:04:32;;;;;;;24.10;11.50;;;;;8.90;96370.00;;;;8315530;28;20240;-77
2022/04/26 21:08:36;;;;;;;26.47;11.67;;;;;8.80;96379.00;;;;8318469;28;20248;-78
2022/04/26 21:17:16;;;;;;;29.33;11.53;;;;;8.80;96373.00;;;;8214191;28;20314;-76
2022/04/26 21:21:19;;;;;;;26.50;11.73;;;;;8.70;96376.00;;;;8255320;28;20241;-76
2022/04/26 21:25:22;;;;;;;25.37;12.20;;;;;8.70;96380.00;;;;8317098;28;20237;-77
2022/04/26 21:29:27;;;;;;;27.63;11.33;;;;;8.60;96377.00;;;;8317005;28;20228;-75
2022/04/26 21:33:50;;;;;;;26.00;11.53;;;;;8.60;96375.00;;;;8316510;28;20574;-77
2022/04/26 21:37:53;;;;;;;25.93;10.87;;;;;8.60;96368.00;;;;8318509;28;20256;-76
2022/04/26 21:41:57;;;;;;;27.70;11.03;;;;;8.60;96375.00;;;;8314181;28;20225;-77
2022/04/26 21:46:03;;;;;;;27.03;11.53;;;;;8.50;96376.00;;;;8316458;28;20237;-77
2022/04/26 21:54:28;;;;;;;28.70;11.33;;;;;8.40;96380.00;;;;8316944;28;20312;-75
2022/04/26 21:58:31;;;;;;;23.93;11.37;;;;;8.50;96379.00;;;;8318984;28;20244;-76
2022/04/26 22:02:36;;;;;;;25.33;11.10;;;;;8.50;96387.00;;;;8317512;28;20225;-76
2022/04/26 22:06:39;;;;;;;26.40;10.47;;;;;8.50;96384.00;;;;8316318;28;20239;-81
2022/04/26 22:10:43;;;;;;;27.83;11.57;;;;;8.50;96387.00;;;;8316186;28;20312;-77
2022/04/26 22:14:47;;;;;;;31.10;12.10;;;;;8.50;96385.00;;;;8316485;28;20598;-77
2022/04/26 22:18:51;;;;;;;27.57;12.47;;;;;8.50;96394.00;;;;8316342;28;20225;-78
2022/04/26 22:22:56;;;;;;;38.63;12.63;;;;;8.50;96394.00;;;;8313913;28;20311;-76
2022/04/26 22:26:59;;;;;;;27.90;12.17;;;;;8.60;96397.00;;;;8315738;28;20336;-76
2022/04/26 22:31:02;;;;;;;30.80;12.67;;;;;8.60;96390.00;;;;8315715;28;20376;-77
2022/04/26 22:35:08;;;;;;;31.17;13.00;;;;;8.60;96400.00;;;;8315579;28;20315;-75
2022/04/26 22:39:11;;;;;;;34.73;13.57;;;;;8.60;96404.00;;;;8314049;28;20237;-77
2022/04/26 22:43:14;;;;;;;30.20;13.37;;;;;8.70;96404.00;;;;8316349;28;20243;-76
2022/04/26 22:47:17;;;;;;;33.17;12.87;;;;;8.60;96415.00;;;;8321957;28;20240;-76
2022/04/26 22:51:22;;;;;;;34.87;15.07;;;;;8.60;96417.00;;;;8315212;28;20316;-76
2022/04/26 22:55:25;;;;;;;28.37;13.07;;;;;8.60;96413.00;;;;8315180;28;20690;-75
2022/04/26 22:59:29;;;;;;;31.40;13.90;;;;;8.70;96418.00;;;;8313362;28;20316;-76
2022/04/26 23:03:32;;;;;;;30.83;13.27;;;;;8.70;96419.00;;;;8312980;28;20320;-76
2022/04/26 23:07:37;;;;;;;32.73;13.53;;;;;8.80;96421.00;;;;8312855;28;20228;-76
2022/04/26 23:11:41;;;;;;;35.63;14.23;;;;;8.80;96428.00;;;;8313583;28;20236;-76
2022/04/26 23:15:44;;;;;;;37.67;14.17;;;;;8.80;96421.00;;;;8313990;28;20317;-77
2022/04/26 23:19:47;;;;;;;38.93;14.10;;;;;8.80;96424.00;;;;8313204;28;20233;-76
2022/04/26 23:23:51;;;;;;;35.60;14.23;;;;;8.80;96427.00;;;;8314333;28;20232;-76
2022/04/26 23:27:54;;;;;;;41.23;14.50;;;;;8.80;96420.00;;;;8313390;28;20234;-77
2022/04/26 23:31:58;;;;;;;37.90;13.80;;;;;8.80;96432.00;;;;8314004;28;20235;-77
2022/04/26 23:36:01;;;;;;;42.83;13.73;;;;;8.80;96421.00;;;;8314843;28;20217;-76
2022/04/26 23:40:07;;;;;;;47.93;14.10;;;;;8.70;96422.00;;;;8311617;28;20320;-76
2022/04/26 23:44:10;;;;;;;55.20;14.17;;;;;8.60;96423.00;;;;8314956;28;20308;-77
2022/04/26 23:48:13;;;;;;;41.83;13.10;;;;;8.60;96430.00;;;;8314548;28;20242;-78
2022/04/26 23:56:38;;;;;;;38.80;13.13;;;;;8.40;96424.00;;;;8306002;28;20256;-75
